createdAt,value
2018-08-13T00:00:33.550Z,36.10
2018-08-13T00:03:03.188Z,36.10
2018-08-13T00:05:36.510Z,36.10
2018-08-13T00:08:06.927Z,36.10
2018-08-13T00:10:36.250Z,36.10
2018-08-13T00:13:05.410Z,36.10
2018-08-13T00:15:34.716Z,36.20
2018-08-13T00:18:04.410Z,36.30
2018-08-13T00:20:34.191Z,36.30
2018-08-13T00:23:04.183Z,36.40
2018-08-13T00:25:34.496Z,36.50
2018-08-13T00:28:03.965Z,36.50
2018-08-13T00:30:33.162Z,36.60
2018-08-13T00:33:02.579Z,36.60
2018-08-13T00:35:32.498Z,36.50
2018-08-13T00:38:02.077Z,36.60
2018-08-13T00:40:31.469Z,36.50
2018-08-13T00:43:07.489Z,36.70
2018-08-13T00:45:36.970Z,36.60
2018-08-13T00:48:08.594Z,36.70
2018-08-13T00:50:38.164Z,36.70
2018-08-13T00:53:07.816Z,36.60
2018-08-13T00:55:37.426Z,36.60
2018-08-13T00:58:07.128Z,36.60
2018-08-13T01:00:38.190Z,36.60
2018-08-13T01:03:08.359Z,36.60
2018-08-13T01:05:37.764Z,36.60
2018-08-13T01:08:07.095Z,36.70
2018-08-13T01:10:37.821Z,36.70
2018-08-13T01:13:11.644Z,37.50
2018-08-13T01:15:41.046Z,36.90
2018-08-13T01:18:10.528Z,37.00
2018-08-13T01:20:40.214Z,37.00
2018-08-13T01:23:10.448Z,37.10
2018-08-13T01:25:40.389Z,37.10
2018-08-13T01:28:10.094Z,37.10
2018-08-13T01:30:41.004Z,37.20
2018-08-13T01:33:11.014Z,37.20
2018-08-13T01:35:40.234Z,37.40
2018-08-13T01:38:09.809Z,37.50
2018-08-13T01:40:42.104Z,37.60
2018-08-13T01:43:11.572Z,37.80
2018-08-13T01:45:41.481Z,37.90
2018-08-13T01:48:10.954Z,37.50
2018-08-13T01:50:40.524Z,38.10
2018-08-13T01:53:11.451Z,38.30
2018-08-13T01:55:40.900Z,38.40
2018-08-13T01:58:10.601Z,38.50
2018-08-13T02:00:41.474Z,38.50
2018-08-13T02:03:11.018Z,38.60
2018-08-13T02:05:40.453Z,38.70
2018-08-13T02:08:09.933Z,38.80
2018-08-13T02:10:39.642Z,38.80
2018-08-13T02:13:09.047Z,38.80
2018-08-13T02:15:40.863Z,38.90
2018-08-13T02:18:10.667Z,39.10
2018-08-13T02:20:40.353Z,39.60
2018-08-13T02:23:09.887Z,39.40
2018-08-13T02:25:39.372Z,39.50
2018-08-13T02:28:08.791Z,39.50
2018-08-13T02:30:38.969Z,39.40
2018-08-13T02:33:08.398Z,39.30
2018-08-13T02:35:38.301Z,39.30
2018-08-13T02:38:07.587Z,39.50
2018-08-13T02:40:37.379Z,39.60
2018-08-13T02:43:07.185Z,39.70
2018-08-13T02:45:36.360Z,39.80
2018-08-13T02:48:06.159Z,39.90
2018-08-13T02:50:35.908Z,40.10
2018-08-13T02:53:05.062Z,40.30
2018-08-13T02:55:36.400Z,40.40
2018-08-13T02:58:06.984Z,40.40
2018-08-13T03:00:40.441Z,40.50
2018-08-13T03:03:30.269Z,40.60
2018-08-13T03:05:59.411Z,40.70
2018-08-13T03:08:31.520Z,40.70
2018-08-13T03:11:24.974Z,40.80
2018-08-13T03:13:54.202Z,40.80
2018-08-13T03:16:33.453Z,41.00
2018-08-13T03:19:04.887Z,40.80
2018-08-13T03:21:34.278Z,41.10
2018-08-13T03:24:04.043Z,41.30
2018-08-13T03:26:33.270Z,41.50
2018-08-13T03:31:39.112Z,41.70
2018-08-13T03:34:08.295Z,41.90
2018-08-13T03:36:37.474Z,42.10
2018-08-13T03:39:13.575Z,42.10
2018-08-13T03:41:44.123Z,42.00
2018-08-13T03:44:44.553Z,42.10
2018-08-13T03:47:17.262Z,41.90
2018-08-13T03:49:46.710Z,42.20
2018-08-13T03:52:16.207Z,42.20
2018-08-13T03:54:48.584Z,42.40
2018-08-13T03:57:32.533Z,42.70
2018-08-13T04:00:02.223Z,42.60
2018-08-13T04:02:31.571Z,42.70
2018-08-13T04:05:01.031Z,43.10
2018-08-13T04:07:30.944Z,43.20
2018-08-13T04:10:00.262Z,43.30
2018-08-13T04:12:29.919Z,43.50
2018-08-13T04:14:59.557Z,43.70
2018-08-13T04:17:29.028Z,44.00
2018-08-13T04:19:59.093Z,44.30
2018-08-13T04:22:28.511Z,44.40
2018-08-13T04:24:58.011Z,44.50
2018-08-13T04:27:27.693Z,44.50
2018-08-13T04:29:57.120Z,44.60
2018-08-13T04:32:26.525Z,44.50
2018-08-13T04:34:56.055Z,44.40
2018-08-13T04:37:25.587Z,44.50
2018-08-13T04:39:55.757Z,44.50
2018-08-13T04:42:25.188Z,44.50
2018-08-13T04:44:54.622Z,44.50
2018-08-13T04:47:24.024Z,44.50
2018-08-13T04:49:54.100Z,44.40
2018-08-13T04:52:23.512Z,44.20
2018-08-13T04:54:52.863Z,44.50
2018-08-13T04:57:22.370Z,44.40
2018-08-13T04:59:51.852Z,45.40
2018-08-13T05:02:21.429Z,44.70
2018-08-13T05:04:50.868Z,44.80
2018-08-13T05:07:20.411Z,45.10
2018-08-13T05:09:50.021Z,45.10
2018-08-13T05:12:21.012Z,45.10
2018-08-13T05:14:53.987Z,45.10
2018-08-13T05:17:25.522Z,45.20
2018-08-13T05:19:55.697Z,45.20
2018-08-13T05:22:28.804Z,45.20
2018-08-13T05:25:01.075Z,45.00
2018-08-13T05:27:32.189Z,45.10
2018-08-13T05:30:01.778Z,45.00
2018-08-13T05:32:31.138Z,45.00
2018-08-13T05:35:00.688Z,45.10
2018-08-13T05:37:31.235Z,45.10
2018-08-13T05:40:01.108Z,45.10
2018-08-13T05:42:30.878Z,44.80
2018-08-13T05:45:05.612Z,45.50
2018-08-13T05:47:36.351Z,45.30
2018-08-13T05:50:10.217Z,45.10
2018-08-13T05:52:41.025Z,45.20
2018-08-13T05:55:10.922Z,45.40
2018-08-13T05:57:55.510Z,45.30
2018-08-13T06:00:41.318Z,45.50
2018-08-13T06:03:24.264Z,45.50
2018-08-13T06:06:15.487Z,45.40
2018-08-13T06:09:01.255Z,45.60
2018-08-13T06:11:31.409Z,45.40
2018-08-13T06:14:00.977Z,45.20
2018-08-13T06:16:30.439Z,45.20
2018-08-13T06:18:59.985Z,45.40
2018-08-13T06:21:29.378Z,45.30
2018-08-13T06:23:59.531Z,45.30
2018-08-13T06:26:29.771Z,45.20
2018-08-13T06:29:00.759Z,45.20
2018-08-13T06:31:31.038Z,45.10
2018-08-13T06:34:01.479Z,45.10
2018-08-13T06:36:31.907Z,45.00
2018-08-13T06:39:01.958Z,45.00
2018-08-13T06:41:32.071Z,44.70
2018-08-13T06:44:02.073Z,44.70
2018-08-13T06:46:34.796Z,44.50
2018-08-13T06:49:04.529Z,44.60
2018-08-13T06:51:34.672Z,44.30
2018-08-13T06:54:04.398Z,44.30
2018-08-13T06:56:34.702Z,44.00
2018-08-13T06:59:03.962Z,44.10
2018-08-13T07:01:33.621Z,43.70
2018-08-13T07:04:02.981Z,43.90
2018-08-13T07:06:33.243Z,44.80
2018-08-13T07:09:03.910Z,44.50
2018-08-13T07:11:33.309Z,44.40
2018-08-13T07:14:04.979Z,44.40
2018-08-13T07:16:37.395Z,44.50
2018-08-13T07:19:08.869Z,44.70
2018-08-13T07:21:38.417Z,44.30
2018-08-13T07:24:07.930Z,44.80
2018-08-13T07:26:37.628Z,44.30
2018-08-13T07:29:07.348Z,44.20
2018-08-13T07:31:37.684Z,44.40
2018-08-13T07:34:07.397Z,44.50
2018-08-13T07:36:36.978Z,44.40
2018-08-13T07:39:09.579Z,44.40
2018-08-13T07:41:39.436Z,44.50
2018-08-13T07:44:09.105Z,44.60
2018-08-13T07:46:38.312Z,44.60
2018-08-13T07:49:07.839Z,44.50
2018-08-13T07:51:37.483Z,44.40
2018-08-13T07:54:07.074Z,44.60
2018-08-13T07:56:39.138Z,45.40
2018-08-13T07:59:08.655Z,44.40
2018-08-13T08:01:37.732Z,44.60
2018-08-13T08:04:07.684Z,44.50
2018-08-13T08:06:37.245Z,44.40
2018-08-13T08:09:10.886Z,44.30
2018-08-13T08:11:40.930Z,44.20
2018-08-13T08:14:10.727Z,44.30
2018-08-13T08:16:40.347Z,44.10
2018-08-13T08:19:09.622Z,44.20
2018-08-13T08:21:38.984Z,44.00
2018-08-13T08:24:08.791Z,43.80
2018-08-13T08:26:38.417Z,43.80
2018-08-13T08:29:08.798Z,43.80
2018-08-13T08:31:38.951Z,43.80
2018-08-13T08:34:09.050Z,43.90
2018-08-13T08:36:39.414Z,43.80
2018-08-13T08:39:13.952Z,43.70
2018-08-13T08:41:54.469Z,43.20
2018-08-13T08:44:53.438Z,42.20
2018-08-13T08:47:23.262Z,42.20
2018-08-13T08:49:52.765Z,42.10
2018-08-13T08:52:22.231Z,40.10
2018-08-13T08:54:52.010Z,39.20
2018-08-13T08:57:21.624Z,38.20
2018-08-13T08:59:50.971Z,37.20
2018-08-13T09:02:20.615Z,36.20
2018-08-13T09:04:49.972Z,36.10
2018-08-13T09:07:20.656Z,36.10
2018-08-13T09:09:50.615Z,36.40
2018-08-13T09:12:20.630Z,36.10
2018-08-13T09:14:50.177Z,36.20
2018-08-13T09:17:19.559Z,35.80
2018-08-13T09:22:06.109Z,35.90
2018-08-13T09:24:46.496Z,35.80
2018-08-13T09:27:26.759Z,36.40
2018-08-13T09:30:07.035Z,37.00
2018-08-13T09:32:51.801Z,37.40
2018-08-13T09:35:33.986Z,37.80
2018-08-13T09:38:03.501Z,39.00
2018-08-13T09:40:33.373Z,39.60
2018-08-13T09:43:04.529Z,39.50
2018-08-13T09:45:33.723Z,40.10
2018-08-13T09:48:03.101Z,39.70
2018-08-13T09:50:32.176Z,40.80
2018-08-13T09:53:01.646Z,41.40
2018-08-13T09:55:30.758Z,41.70
2018-08-13T09:58:00.298Z,41.50
2018-08-13T10:00:34.974Z,41.90
2018-08-13T10:03:18.210Z,42.20
2018-08-13T10:11:01.881Z,42.30
2018-08-13T10:13:31.590Z,42.60
2018-08-13T10:16:01.211Z,43.60
2018-08-13T10:18:34.105Z,43.50
2018-08-13T10:21:10.272Z,43.60
2018-08-13T10:23:39.849Z,43.70
2018-08-13T10:26:10.772Z,43.70
2018-08-13T10:28:45.090Z,43.40
2018-08-13T10:31:17.522Z,43.60
2018-08-13T10:33:47.340Z,44.00
2018-08-13T10:36:16.697Z,43.60
2018-08-13T10:38:55.170Z,43.70
2018-08-13T10:41:24.976Z,43.60
2018-08-13T10:43:54.828Z,44.30
2018-08-13T10:46:24.410Z,44.20
2018-08-13T10:48:54.688Z,43.50
2018-08-13T10:51:24.136Z,43.60
2018-08-13T10:53:57.760Z,44.50
2018-08-13T10:56:27.621Z,44.60
2018-08-13T10:58:57.152Z,44.70
2018-08-13T11:01:26.993Z,44.60
2018-08-13T11:03:56.774Z,44.50
2018-08-13T11:06:25.948Z,44.70
2018-08-13T11:08:55.869Z,45.10
2018-08-13T11:11:26.018Z,45.60
2018-08-13T11:14:12.138Z,45.00
2018-08-13T11:16:49.522Z,45.10
2018-08-13T11:19:20.312Z,45.40
2018-08-13T11:21:49.986Z,45.80
2018-08-13T11:24:20.434Z,46.40
2018-08-13T11:26:50.338Z,46.50
2018-08-13T11:29:21.029Z,46.70
2018-08-13T11:31:52.947Z,45.90
2018-08-13T11:34:22.982Z,46.00
2018-08-13T11:36:52.351Z,45.70
2018-08-13T11:39:22.412Z,45.80
2018-08-13T11:41:51.796Z,46.20
2018-08-13T11:44:21.479Z,46.70
2018-08-13T11:46:51.087Z,47.20
2018-08-13T11:49:20.781Z,47.80
2018-08-13T11:51:50.517Z,48.10
2018-08-13T11:54:21.507Z,48.20
2018-08-13T11:56:51.142Z,48.50
2018-08-13T11:59:20.817Z,49.10
2018-08-13T12:01:50.520Z,49.60
2018-08-13T12:04:21.128Z,50.20
2018-08-13T12:06:51.361Z,51.10
2018-08-13T12:09:21.012Z,51.40
2018-08-13T12:11:50.405Z,51.30
2018-08-13T12:14:20.019Z,52.20
2018-08-13T12:16:49.374Z,52.70
2018-08-13T12:19:22.072Z,53.70
2018-08-13T12:21:51.707Z,53.70
2018-08-13T12:24:21.513Z,54.00
2018-08-13T12:26:51.295Z,54.40
2018-08-13T12:29:20.787Z,54.20
2018-08-13T12:31:51.331Z,53.70
2018-08-13T12:34:20.830Z,53.70
2018-08-13T12:36:54.628Z,52.70
2018-08-13T12:39:24.012Z,51.60
2018-08-13T12:41:53.774Z,51.40
2018-08-13T12:44:24.675Z,52.00
2018-08-13T12:46:54.193Z,52.70
2018-08-13T12:49:24.626Z,52.80
2018-08-13T12:52:03.750Z,53.00
2018-08-13T12:54:36.533Z,54.00
2018-08-13T12:57:07.783Z,53.50
2018-08-13T12:59:37.250Z,53.70
2018-08-13T13:02:08.077Z,53.90
2018-08-13T13:04:37.447Z,53.60
2018-08-13T13:07:07.130Z,53.70
2018-08-13T13:09:36.642Z,53.60
2018-08-13T13:12:06.163Z,53.60
2018-08-13T13:14:35.749Z,53.30
2018-08-13T13:17:04.904Z,53.20
2018-08-13T13:19:34.381Z,53.20
2018-08-13T13:22:03.433Z,53.10
2018-08-13T13:24:33.057Z,52.90
2018-08-13T13:27:02.386Z,52.70
2018-08-13T13:29:32.030Z,52.20
2018-08-13T13:32:01.566Z,52.40
2018-08-13T13:34:31.921Z,52.30
2018-08-13T13:37:01.529Z,52.60
2018-08-13T13:39:31.529Z,52.80
2018-08-13T13:42:01.463Z,53.10
2018-08-13T13:44:31.440Z,52.40
2018-08-13T13:47:00.962Z,53.00
2018-08-13T13:49:30.444Z,53.20
2018-08-13T13:52:00.036Z,52.80
2018-08-13T13:54:38.941Z,53.40
2018-08-13T13:57:38.780Z,54.20
2018-08-13T14:00:20.482Z,53.80
2018-08-13T14:02:54.028Z,53.80
2018-08-13T14:05:25.059Z,53.50
2018-08-13T14:08:01.896Z,53.10
2018-08-13T14:10:31.541Z,53.20
2018-08-13T14:13:01.285Z,53.30
2018-08-13T14:15:30.731Z,53.50
2018-08-13T14:18:00.467Z,53.50
2018-08-13T14:20:30.313Z,52.70
2018-08-13T14:23:00.196Z,52.80
2018-08-13T14:25:32.146Z,52.80
2018-08-13T14:28:01.939Z,52.80
2018-08-13T14:30:33.063Z,52.50
2018-08-13T14:33:13.334Z,52.40
2018-08-13T14:35:48.575Z,52.60
2018-08-13T14:38:33.485Z,52.70
2018-08-13T14:41:04.007Z,52.70
2018-08-13T14:43:36.151Z,52.10
2018-08-13T14:46:05.603Z,51.80
2018-08-13T14:48:35.145Z,51.70
2018-08-13T14:51:06.246Z,51.50
2018-08-13T14:53:36.131Z,50.80
2018-08-13T14:56:06.968Z,50.20
2018-08-13T14:58:36.357Z,50.60
2018-08-13T15:01:07.814Z,50.60
2018-08-13T15:03:37.322Z,50.50
2018-08-13T15:06:07.055Z,50.20
2018-08-13T15:08:37.823Z,49.80
2018-08-13T15:11:09.512Z,49.40
2018-08-13T15:13:39.038Z,49.50
2018-08-13T15:16:08.781Z,49.70
2018-08-13T15:18:38.439Z,49.90
2018-08-13T15:21:08.335Z,50.30
2018-08-13T15:23:38.361Z,49.60
2018-08-13T15:26:07.837Z,49.60
2018-08-13T15:28:37.627Z,49.40
2018-08-13T15:31:08.082Z,49.80
2018-08-13T15:33:37.803Z,50.50
2018-08-13T15:36:07.756Z,51.00
2018-08-13T15:38:37.601Z,51.00
2018-08-13T15:41:07.317Z,51.20
2018-08-13T15:46:18.022Z,51.10
2018-08-13T15:48:48.411Z,51.10
2018-08-13T15:51:18.486Z,50.20
2018-08-13T15:53:48.117Z,49.60
2018-08-13T15:56:17.710Z,49.40
2018-08-13T15:58:47.477Z,49.20
2018-08-13T16:01:18.014Z,48.10
2018-08-13T16:03:47.433Z,48.30
2018-08-13T16:06:17.744Z,48.00
2018-08-13T16:08:47.371Z,48.00
2018-08-13T16:11:17.008Z,47.70
2018-08-13T16:13:47.181Z,47.80
2018-08-13T16:16:17.516Z,47.50
2018-08-13T16:18:47.984Z,47.30
2018-08-13T16:21:17.861Z,47.30
2018-08-13T16:23:47.365Z,47.30
2018-08-13T16:26:17.209Z,47.20
2018-08-13T16:28:47.742Z,47.70
2018-08-13T16:31:17.665Z,47.90
2018-08-13T16:33:47.458Z,48.00
2018-08-13T16:36:17.220Z,48.40
2018-08-13T16:38:47.003Z,48.50
2018-08-13T16:41:16.793Z,48.50
2018-08-13T16:43:46.489Z,49.30
2018-08-13T16:46:15.886Z,48.70
2018-08-13T16:48:45.496Z,48.70
2018-08-13T16:51:15.341Z,48.90
2018-08-13T16:53:45.068Z,48.90
2018-08-13T16:56:14.791Z,48.90
2018-08-13T16:58:44.311Z,49.00
2018-08-13T17:01:14.030Z,49.00
2018-08-13T17:03:43.358Z,49.10
2018-08-13T17:06:12.723Z,49.20
2018-08-13T17:08:42.168Z,49.20
2018-08-13T17:11:14.196Z,49.20
2018-08-13T17:13:46.676Z,49.30
2018-08-13T17:16:16.017Z,49.00
2018-08-13T17:18:46.600Z,49.30
2018-08-13T17:21:30.034Z,49.30
2018-08-13T17:24:06.188Z,49.30
2018-08-13T17:26:35.508Z,49.20
2018-08-13T17:29:06.005Z,49.30
2018-08-13T17:31:35.715Z,49.30
2018-08-13T17:34:05.272Z,49.20
2018-08-13T17:36:35.119Z,49.20
2018-08-13T17:39:06.352Z,49.10
2018-08-13T17:41:39.444Z,49.00
2018-08-13T17:44:08.941Z,49.10
2018-08-13T17:46:40.044Z,49.10
2018-08-13T17:49:10.075Z,49.10
2018-08-13T17:51:40.276Z,49.20
2018-08-13T17:54:15.170Z,49.10
2018-08-13T17:56:44.550Z,49.20
2018-08-13T17:59:14.288Z,49.20
2018-08-13T18:01:44.084Z,49.50
2018-08-13T18:04:14.947Z,49.40
2018-08-13T18:06:44.839Z,49.90
2018-08-13T18:09:15.955Z,50.30
2018-08-13T18:11:51.287Z,49.80
2018-08-13T18:14:21.062Z,49.80
2018-08-13T18:16:50.240Z,51.20
2018-08-13T18:19:34.537Z,50.80
2018-08-13T18:22:05.988Z,50.50
2018-08-13T18:24:35.169Z,50.50
2018-08-13T18:27:04.705Z,51.00
2018-08-13T18:29:35.107Z,50.70
2018-08-13T18:32:04.946Z,50.50
2018-08-13T18:34:34.840Z,50.50
2018-08-13T18:37:04.442Z,50.20
2018-08-13T18:39:33.603Z,50.30
2018-08-13T18:42:04.511Z,50.30
2018-08-13T18:44:34.518Z,50.00
2018-08-13T18:47:05.557Z,50.00
2018-08-13T18:49:34.638Z,49.80
2018-08-13T18:52:05.395Z,50.00
2018-08-13T18:57:35.972Z,49.80
2018-08-13T19:00:10.225Z,49.70
2018-08-13T19:02:43.694Z,50.40
2018-08-13T19:05:21.563Z,49.70
2018-08-13T19:07:51.897Z,49.60
2018-08-13T19:10:22.108Z,49.80
2018-08-13T19:12:51.751Z,49.80
2018-08-13T19:15:25.301Z,49.60
2018-08-13T19:17:55.074Z,49.90
2018-08-13T19:20:25.945Z,49.80
2018-08-13T19:22:55.557Z,51.00
2018-08-13T19:25:27.337Z,52.10
2018-08-13T19:27:57.117Z,53.30
2018-08-13T19:30:27.417Z,54.60
2018-08-13T19:32:56.814Z,55.70
2018-08-13T19:35:30.371Z,59.30
2018-08-13T19:37:59.655Z,62.00
2018-08-13T19:40:29.295Z,61.70
2018-08-13T19:42:59.937Z,61.50
2018-08-13T19:45:30.306Z,62.10
2018-08-13T19:48:00.571Z,61.80
2018-08-13T19:50:30.408Z,60.80
2018-08-13T19:52:59.950Z,59.00
2018-08-13T19:55:30.090Z,57.80
2018-08-13T19:58:06.389Z,57.10
2018-08-13T20:01:05.878Z,56.00
2018-08-13T20:03:35.790Z,55.50
2018-08-13T20:06:05.968Z,55.50
2018-08-13T20:08:35.836Z,55.40
2018-08-13T20:11:06.277Z,55.90
2018-08-13T20:13:36.227Z,56.80
2018-08-13T20:16:06.031Z,57.30
2018-08-13T20:18:35.453Z,57.30
2018-08-13T20:21:05.564Z,57.80
2018-08-13T20:23:34.811Z,57.60
2018-08-13T20:26:04.037Z,59.00
2018-08-13T20:28:33.337Z,57.70
2018-08-13T20:31:02.768Z,58.00
2018-08-13T20:33:36.016Z,58.50
2018-08-13T20:36:07.261Z,58.10
2018-08-13T20:38:37.065Z,57.90
2018-08-13T20:41:14.879Z,58.10
2018-08-13T20:43:44.995Z,58.20
2018-08-13T20:46:14.708Z,58.10
2018-08-13T20:48:44.248Z,58.10
2018-08-13T20:51:13.820Z,58.20
2018-08-13T20:53:43.383Z,58.30
2018-08-13T20:56:12.801Z,58.40
2018-08-13T20:58:45.299Z,58.50
2018-08-13T21:01:35.798Z,58.50
2018-08-13T21:04:16.045Z,58.60
2018-08-13T21:06:49.386Z,59.50
2018-08-13T21:09:29.636Z,60.00
2018-08-13T21:12:06.802Z,60.00
2018-08-13T21:14:51.683Z,59.80
2018-08-13T21:17:39.398Z,60.90
2018-08-13T21:20:13.426Z,60.60
2018-08-13T21:22:52.993Z,60.20
2018-08-13T21:25:36.038Z,60.20
2018-08-13T21:28:07.310Z,60.80
2018-08-13T21:30:36.800Z,60.30
2018-08-13T21:33:06.012Z,61.60
2018-08-13T21:35:35.982Z,60.40
2018-08-13T21:38:11.325Z,60.20
2018-08-13T21:40:41.368Z,60.00
2018-08-13T21:43:11.024Z,59.60
2018-08-13T21:45:40.581Z,59.70
2018-08-13T21:48:09.935Z,59.50
2018-08-13T21:50:39.621Z,59.40
2018-08-13T21:53:09.382Z,59.30
2018-08-13T21:55:39.091Z,59.10
2018-08-13T21:58:08.852Z,59.00
2018-08-13T22:00:43.555Z,59.00
2018-08-13T22:03:13.194Z,59.00
2018-08-13T22:05:43.231Z,59.00
2018-08-13T22:08:12.678Z,59.30
2018-08-13T22:10:42.149Z,58.70
2018-08-13T22:13:11.852Z,59.40
2018-08-13T22:15:41.310Z,59.60
2018-08-13T22:18:11.229Z,59.00
2018-08-13T22:20:40.704Z,59.40
2018-08-13T22:23:10.334Z,59.10
2018-08-13T22:25:44.063Z,59.10
2018-08-13T22:28:14.904Z,59.50
2018-08-13T22:30:44.505Z,59.60
2018-08-13T22:33:14.343Z,59.60
2018-08-13T22:35:47.781Z,59.80
2018-08-13T22:38:17.325Z,59.70
2018-08-13T22:40:48.216Z,59.70
2018-08-13T22:43:18.917Z,61.00
2018-08-13T22:46:04.285Z,63.40
2018-08-13T22:48:34.097Z,63.40
2018-08-13T22:51:04.402Z,64.00
2018-08-13T22:53:33.717Z,63.30
2018-08-13T22:56:02.979Z,62.60
2018-08-13T22:58:32.695Z,62.00
2018-08-13T23:01:02.457Z,62.00
2018-08-13T23:03:32.315Z,62.10
2018-08-13T23:06:02.053Z,61.40
2018-08-13T23:08:31.821Z,61.20
2018-08-13T23:11:01.734Z,61.70
2018-08-13T23:13:31.282Z,62.20
2018-08-13T23:16:01.042Z,63.50
2018-08-13T23:18:30.837Z,63.50
2018-08-13T23:21:00.533Z,63.20
2018-08-13T23:23:30.237Z,63.20
2018-08-13T23:25:59.849Z,63.10
2018-08-13T23:28:30.424Z,62.80
2018-08-13T23:31:00.641Z,63.20
2018-08-13T23:33:30.176Z,63.70
2018-08-13T23:36:00.899Z,63.70
2018-08-13T23:38:30.532Z,64.80
2018-08-13T23:41:00.050Z,68.80
2018-08-13T23:43:29.515Z,70.80
2018-08-13T23:45:59.023Z,73.50
2018-08-13T23:48:28.686Z,75.40
2018-08-13T23:51:02.052Z,76.20
2018-08-13T23:53:33.092Z,76.20
2018-08-13T23:56:02.318Z,77.00
2018-08-13T23:58:32.118Z,76.90
